To NAV CANADA Home Page Login to a new session Search on AWWS site Feedback and Comments Disclaimer Vers la page française équivalente Tips FAQ What's new on the site To the Forecasts and Observations / NOTAM section To "File a Flight Plan" website Publications and other links Update of the User's profile FIC Telephone Numbers My Weather Data Folder Route Weather Data Regional Weather Data Local Weather Data To the Forecasts and Observations / NOTAM section
Request Generated 12/10/2016 at 16:33:06 UTC . Weather information available at that time is displayed.

METAR/TAF

SAINT JOHN/NB    

METAR CYSJ 101600Z 32009G18KT 15SM SCT022 BKN240 M10/M17 A3006 RMK
SC4CI3 SLP187=
METAR CYSJ 101500Z 32015G23KT 15SM SCT022 BKN180 M11/M17 A3006 RMK
SC4AC2 SLP190=
METAR CYSJ 101400Z 34016G27KT 15SM BKN022 M12/M17 A3007 RMK SC7
SLP191=

TAF AMD CYSJ 101314Z 1013/1024 32012G22KT P6SM FEW020 TEMPO 1013/1024
BKN020
RMK NXT FCST BY 101800Z=
Your time UTC time
Weather data provided by Environment Canada and NAV CANADA